Friday, November 24, 2017, 8:19 AM EST
Back to Local

KDSV, Dansville Municipal Airport

Location: Dansville, NY, United States Lat: 42.567
Local Time: 8:19 AM EST (13:19 GMT) Lon: -77.717
Time Zone: US/Eastern Elev: 662 ft

Show me the last for .
Show Coded

Time T Td Feel RH Dir Speed Gust Alt SLP Vis Weather Sky Remarks
2017-11-24 07:54 31 24 25 75 150° 6 - 29.95 30.00 10 CLR None
2017-11-24 06:54 29 22 23 74 130° 6 - 29.94 29.99 10 CLR 6-hr Min Temp (7am): 28.9°F
6-hr Max Temp (7am): 37.9°F
2017-11-24 05:54 33 23 29 66 190° 5 - 29.95 29.99 10 CLR None
2017-11-24 04:54 36 23 31 58 180° 6 - 29.95 29.99 10 BKN032 None
2017-11-24 04:30 37 23 32 56 170° 7 - 29.95 - 10 OVC031 None
2017-11-24 03:54 37 23 32 56 150° 7 - 29.95 29.99 10 OVC027 None
2017-11-24 03:01 38 23 34 54 Variable 5 - 29.96 - 10 OVC028 None
2017-11-24 02:54 38 23 34 54 180° 5 - 29.96 30.00 10 OVC030 None
2017-11-24 01:54 36 23 31 58 140° 6 - 29.97 30.01 10 SCT032 OVC060 None
2017-11-24 00:54 36 23 33 58 130° 3 - 29.97 30.01 10 FEW038 OVC060 6-hr Min Temp (1am): 33.1°F
6-hr Max Temp (1am): 36.0°F
2017-11-23 23:54 36 22 32 56 140° 5 - 29.98 30.02 10 OVC065 24-hr Min Temp (12am): 28.0°F
24-hr Max Temp (12am): 36.0°F
2017-11-23 22:54 35 22 30 58 160° 6 - 29.97 30.01 10 OVC075 None
2017-11-23 21:54 36 25 32 63 140° 5 - 29.97 30.01 10 OVC042 None
2017-11-23 20:54 35 26 32 69 150° 3 - 29.98 30.02 10 OVC045 None
2017-11-23 19:54 35 26 31 69 160° 5 - 29.97 30.02 10 OVC048 None
2017-11-23 18:54 35 26 - 69 - Calm - 29.97 30.02 10 OVC060 6-hr Min Temp (7pm): 34.0°F
6-hr Max Temp (7pm): 36.0°F
2017-11-23 17:54 36 25 32 63 100° 5 - 29.96 30.01 10 OVC070 None
2017-11-23 16:54 36 24 31 61 140° 6 - 29.96 30.01 10 OVC100 None
2017-11-23 15:54 36 25 30 63 160° 8 - 29.97 30.02 10 FEW030 OVC100 None
2017-11-23 15:09 36 25 32 63 140° 5 - 29.99 - 10 SCT026 BKN033 OVC095 None
2017-11-23 14:54 35 25 31 66 140° 5 - 29.99 30.03 10 BKN026 OVC032 None
2017-11-23 13:54 35 24 32 63 180° 3 - 30.01 30.06 10 OVC024 None
2017-11-23 12:54 34 23 29 63 140° 6 - 30.03 30.08 10 OVC024 6-hr Min Temp (1pm): 28.0°F
6-hr Max Temp (1pm): 34.0°F
2017-11-23 11:54 33 23 27 66 150° 7 - 30.05 30.10 10 OVC027 None
2017-11-23 11:40 33 22 27 63 160° 7 - 30.07 - 10 OVC029 None
2017-11-23 10:54 32 22 26 65 160° 6 - 30.09 30.14 10 OVC031 None
2017-11-23 10:26 32 22 25 65 130° 8 - 30.11 - 10 OVC030 None
2017-11-23 09:54 32 22 27 65 140° 5 - 30.12 30.17 10 OVC027 None
2017-11-23 09:35 31 22 25 68 120° 6 - 30.12 - 10 OVC028 None
2017-11-23 08:54 31 21 27 66 150° 3 - 30.13 30.18 10 OVC032 None

Support USWX by starting your Amazon purchase here.